Time;durP1;ratioP1;P1;durP2;ratioP2;P2;SDS_P1;SDS_P2;PMS_P1;PMS_P2;Temp;Humidity;BMP_temperature;BMP_pressure;BME280_temperature;BME280_humidity;BME280_pressure;Samples;Min_cycle;Max_cycle;Signal;HPM_P1;HPM_P2
2021/04/21 00:00:42;;;;;;;32.00;19.98;;;16.00;61.30;;;;;;5064387;28;20427;-73
2021/04/21 00:03:09;;;;;;;31.83;20.67;;;16.00;61.00;;;;;;5066779;28;20517;-73
2021/04/21 00:05:37;;;;;;;30.98;20.10;;;16.00;61.60;;;;;;5070953;28;20517;-74
2021/04/21 00:08:07;;;;;;;31.67;20.13;;;15.90;60.30;;;;;;5068227;28;20447;-74
2021/04/21 00:10:34;;;;;;;31.25;19.27;;;15.90;60.00;;;;;;5066545;28;20498;-73
2021/04/21 00:13:01;;;;;;;35.65;20.10;;;15.90;59.80;;;;;;5066307;28;20522;-75
2021/04/21 00:15:29;;;;;;;33.88;19.52;;;15.90;59.50;;;;;;5069143;28;20460;-74
2021/04/21 00:18:00;;;;;;;34.83;19.83;;;15.90;59.00;;;;;;5074057;28;20937;-74
2021/04/21 00:20:28;;;;;;;31.73;18.10;;;15.80;58.90;;;;;;5074659;28;20417;-74
2021/04/21 00:22:57;;;;;;;30.02;17.77;;;15.80;58.60;;;;;;5072851;28;20425;-73
2021/04/21 00:25:25;;;;;;;27.52;17.35;;;15.80;58.10;;;;;;5064225;28;20437;-74
2021/04/21 00:27:53;;;;;;;27.20;16.88;;;15.80;57.80;;;;;;5072158;28;20725;-74
2021/04/21 00:30:23;;;;;;;26.15;17.00;;;15.80;57.50;;;;;;5065590;28;20432;-74
2021/04/21 00:32:52;;;;;;;25.10;15.98;;;15.70;57.20;;;;;;5069916;28;20825;-73
2021/04/21 00:35:23;;;;;;;26.67;15.85;;;15.70;57.00;;;;;;5065107;28;20422;-74
2021/04/21 00:37:52;;;;;;;28.33;16.65;;;15.70;56.60;;;;;;5068110;28;20923;-75
2021/04/21 00:40:25;;;;;;;29.33;16.33;;;15.60;56.50;;;;;;5070207;28;20429;-76
2021/04/21 00:42:57;;;;;;;26.67;16.53;;;15.60;56.30;;;;;;5073569;28;20899;-74
2021/04/21 00:45:31;;;;;;;28.47;15.70;;;15.60;56.10;;;;;;5066323;28;20431;-74
2021/04/21 00:48:05;;;;;;;26.55;15.65;;;15.50;56.10;;;;;;5064138;28;20443;-74
2021/04/21 00:50:42;;;;;;;25.98;15.05;;;15.50;55.90;;;;;;5069181;28;20432;-75
2021/04/21 00:53:17;;;;;;;25.77;16.08;;;15.50;55.90;;;;;;5072085;28;20514;-74
2021/04/21 00:56:06;;;;;;;26.75;15.32;;;15.40;55.80;;;;;;5067985;28;20454;-74
2021/04/21 00:58:44;;;;;;;26.43;15.53;;;15.40;55.80;;;;;;5069300;28;20438;-74
2021/04/21 01:01:13;;;;;;;23.38;14.90;;;15.40;56.10;;;;;;5068911;28;20465;-74
2021/04/21 01:03:42;;;;;;;25.48;15.00;;;15.30;56.10;;;;;;5065067;28;20511;-74
2021/04/21 01:06:12;;;;;;;26.13;15.38;;;15.30;56.20;;;;;;5068189;28;20423;-74
2021/04/21 01:08:42;;;;;;;22.27;14.10;;;15.30;56.20;;;;;;5067856;28;20546;-73
2021/04/21 01:11:14;;;;;;;24.70;14.82;;;15.20;56.10;;;;;;5074066;28;20422;-73
2021/04/21 01:13:45;;;;;;;21.83;14.43;;;15.20;56.00;;;;;;5065672;28;20518;-75
2021/04/21 01:16:12;;;;;;;26.92;14.82;;;15.20;56.00;;;;;;5071719;28;20422;-74
2021/04/21 01:18:42;;;;;;;23.30;14.30;;;15.10;56.50;;;;;;5067664;28;20787;-73
2021/04/21 01:21:12;;;;;;;24.02;13.98;;;15.10;55.80;;;;;;5070122;28;20426;-74
2021/04/21 01:23:54;;;;;;;25.35;13.45;;;15.10;55.70;;;;;;5070399;28;20440;-74
2021/04/21 01:26:33;;;;;;;24.47;14.10;;;15.00;55.40;;;;;;5073818;28;20891;-75
2021/04/21 01:29:02;;;;;;;26.38;13.32;;;15.00;55.50;;;;;;5070489;28;20433;-75
2021/04/21 01:31:32;;;;;;;25.80;13.37;;;15.00;55.40;;;;;;5076884;28;20437;-73
2021/04/21 01:34:00;;;;;;;27.13;13.77;;;14.90;55.30;;;;;;5077749;28;20419;-73
2021/04/21 01:36:29;;;;;;;22.23;12.68;;;14.90;55.30;;;;;;5071048;28;20434;-74
2021/04/21 01:39:00;;;;;;;22.83;12.65;;;14.90;55.20;;;;;;5073116;28;20427;-74
2021/04/21 01:41:30;;;;;;;23.93;12.70;;;14.80;55.10;;;;;;5069768;28;20431;-73
2021/04/21 01:44:01;;;;;;;24.10;12.38;;;14.80;55.30;;;;;;5066606;28;20427;-73
2021/04/21 01:46:32;;;;;;;24.03;13.27;;;14.80;55.80;;;;;;5075496;28;20425;-74
2021/04/21 01:49:10;;;;;;;21.63;12.50;;;14.70;55.70;;;;;;5068317;28;20427;-74
2021/04/21 01:51:41;;;;;;;26.00;13.53;;;14.70;55.80;;;;;;5069878;28;20427;-73
2021/04/21 01:54:12;;;;;;;23.15;13.70;;;14.70;56.20;;;;;;5068004;28;20423;-74
2021/04/21 01:56:43;;;;;;;26.60;14.18;;;14.70;56.50;;;;;;5071556;28;20431;-75
2021/04/21 01:59:19;;;;;;;24.08;14.70;;;14.60;57.10;;;;;;5074773;28;20480;-73
2021/04/21 02:01:51;;;;;;;28.43;15.63;;;14.60;57.70;;;;;;5069813;28;20434;-74
2021/04/21 02:04:46;;;;;;;27.90;16.30;;;14.60;58.60;;;;;;5072860;28;20477;-74
2021/04/21 02:07:29;;;;;;;30.58;16.55;;;14.50;59.70;;;;;;5069388;28;20445;-73
2021/04/21 02:10:11;;;;;;;32.00;18.30;;;14.50;60.20;;;;;;5074847;28;20429;-74
2021/04/21 02:12:49;;;;;;;30.05;18.20;;;14.40;61.30;;;;;;5070521;28;20500;-75
2021/04/21 02:15:22;;;;;;;32.50;19.08;;;14.40;62.20;;;;;;5069442;28;20424;-75
2021/04/21 02:17:57;;;;;;;30.67;19.23;;;14.40;62.90;;;;;;5068589;28;20478;-75
2021/04/21 02:20:30;;;;;;;31.50;20.40;;;14.40;63.60;;;;;;5074924;28;20459;-75
2021/04/21 02:23:02;;;;;;;32.20;20.08;;;14.30;64.30;;;;;;5071557;28;20436;-75
2021/04/21 02:25:47;;;;;;;36.35;20.77;;;14.30;64.90;;;;;;5072624;28;20417;-75
2021/04/21 02:28:20;;;;;;;34.63;20.80;;;14.30;65.40;;;;;;5072994;28;20552;-74
2021/04/21 02:30:51;;;;;;;33.78;21.40;;;14.20;65.80;;;;;;5070059;28;20908;-76
2021/04/21 02:33:25;;;;;;;35.30;22.52;;;14.20;66.30;;;;;;5071359;28;21239;-72
2021/04/21 02:35:55;;;;;;;38.78;22.58;;;14.10;66.70;;;;;;5066558;28;20934;-76
2021/04/21 02:38:29;;;;;;;33.90;22.02;;;14.10;67.00;;;;;;5071038;28;20419;-72
2021/04/21 02:41:12;;;;;;;35.77;22.20;;;14.10;67.50;;;;;;5078476;28;20426;-72
2021/04/21 02:44:01;;;;;;;35.30;22.50;;;14.10;67.80;;;;;;5067719;28;20422;-74
2021/04/21 02:46:35;;;;;;;37.88;23.08;;;14.00;68.10;;;;;;5077511;28;20461;-72
2021/04/21 02:49:14;;;;;;;38.47;23.10;;;14.00;68.20;;;;;;5068122;28;20435;-74
2021/04/21 02:51:47;;;;;;;35.13;22.38;;;14.00;68.30;;;;;;5068932;28;20411;-73
2021/04/21 02:54:21;;;;;;;38.78;22.63;;;14.00;68.30;;;;;;5069144;28;20424;-73
2021/04/21 02:56:55;;;;;;;37.55;23.88;;;13.90;68.40;;;;;;5075977;28;20473;-73
2021/04/21 02:59:31;;;;;;;38.70;23.97;;;13.90;68.50;;;;;;5068732;28;20518;-74
2021/04/21 03:02:05;;;;;;;39.75;23.52;;;13.90;68.80;;;;;;5067630;28;20442;-76
2021/04/21 03:04:40;;;;;;;39.25;24.75;;;13.90;69.20;;;;;;5069592;28;20416;-72
2021/04/21 03:07:15;;;;;;;38.72;24.40;;;13.90;70.20;;;;;;5071451;28;20421;-74
2021/04/21 03:09:47;;;;;;;37.83;23.90;;;13.90;69.80;;;;;;5069094;28;20513;-74
2021/04/21 03:12:16;;;;;;;40.53;25.05;;;13.80;69.80;;;;;;5071544;28;20431;-73
2021/04/21 03:14:47;;;;;;;37.72;24.45;;;13.80;70.00;;;;;;5067528;28;20480;-73
2021/04/21 03:17:15;;;;;;;37.55;24.65;;;13.80;70.20;;;;;;5066761;28;20419;-73
2021/04/21 03:19:48;;;;;;;38.35;25.55;;;13.80;70.50;;;;;;5071587;28;20866;-75
2021/04/21 03:22:17;;;;;;;35.53;24.67;;;13.70;70.60;;;;;;5067286;28;20480;-74
2021/04/21 03:24:49;;;;;;;38.33;25.58;;;13.70;70.70;;;;;;5066098;28;20428;-74
2021/04/21 03:27:17;;;;;;;39.23;26.07;;;13.70;70.90;;;;;;5071092;28;20426;-74
2021/04/21 03:29:47;;;;;;;39.35;26.17;;;13.60;71.00;;;;;;5068766;28;20446;-74
2021/04/21 03:32:18;;;;;;;39.67;26.08;;;13.60;71.00;;;;;;5070455;28;20434;-75
2021/04/21 03:34:48;;;;;;;43.42;26.23;;;13.60;71.20;;;;;;5068933;28;20434;-75
2021/04/21 03:37:24;;;;;;;38.97;26.60;;;13.60;71.40;;;;;;5073332;28;20426;-76
2021/04/21 03:39:51;;;;;;;40.00;26.37;;;13.60;71.50;;;;;;5070543;28;20438;-74
2021/04/21 03:42:18;;;;;;;44.75;27.35;;;13.60;71.40;;;;;;5072989;28;20776;-75
2021/04/21 03:44:45;;;;;;;40.50;27.00;;;13.50;71.40;;;;;;5065212;28;20415;-74
2021/04/21 03:47:11;;;;;;;42.30;27.48;;;13.50;71.30;;;;;;5071343;28;20429;-75
2021/04/21 03:49:40;;;;;;;40.70;27.10;;;13.50;71.30;;;;;;5070684;28;20442;-74
2021/04/21 03:52:10;;;;;;;41.20;26.80;;;13.50;71.20;;;;;;5079341;28;20780;-74
2021/04/21 03:54:40;;;;;;;47.15;27.60;;;13.50;71.00;;;;;;5068084;28;20509;-73
2021/04/21 03:57:07;;;;;;;46.50;27.58;;;13.40;70.80;;;;;;5075266;28;20416;-75
2021/04/21 03:59:36;;;;;;;43.35;28.15;;;13.40;70.80;;;;;;5069494;28;20415;-73
2021/04/21 04:02:05;;;;;;;45.70;28.10;;;13.40;70.60;;;;;;5077842;28;20435;-75
2021/04/21 04:04:34;;;;;;;44.72;27.90;;;13.40;70.30;;;;;;5073404;28;20427;-75
2021/04/21 04:07:06;;;;;;;45.85;28.55;;;13.40;70.10;;;;;;5067760;28;20423;-75
2021/04/21 04:09:36;;;;;;;45.13;28.58;;;13.40;70.10;;;;;;5065764;28;20450;-75
2021/04/21 04:12:04;;;;;;;45.47;27.92;;;13.30;69.80;;;;;;5075722;28;20440;-75
2021/04/21 04:14:33;;;;;;;45.33;28.05;;;13.30;69.80;;;;;;5067073;28;20423;-75
2021/04/21 04:17:01;;;;;;;48.07;28.80;;;13.30;70.10;;;;;;5072998;28;20489;-75
2021/04/21 04:19:31;;;;;;;50.80;30.65;;;13.30;70.30;;;;;;5068441;28;20529;-74
2021/04/21 04:22:05;;;;;;;49.53;30.75;;;13.30;71.00;;;;;;5064977;28;20431;-74
2021/04/21 04:24:40;;;;;;;48.17;30.53;;;13.20;71.50;;;;;;5071960;28;20426;-75
2021/04/21 04:27:13;;;;;;;49.88;31.90;;;13.30;71.90;;;;;;5066407;28;20920;-75
2021/04/21 04:29:41;;;;;;;51.80;31.63;;;13.20;72.40;;;;;;5068124;28;20427;-74
2021/04/21 04:32:12;;;;;;;50.55;31.77;;;13.20;72.70;;;;;;5067733;28;20427;-75
2021/04/21 04:34:41;;;;;;;47.20;30.65;;;13.20;72.80;;;;;;5070148;28;20419;-75
2021/04/21 04:37:07;;;;;;;54.72;31.30;;;13.20;73.20;;;;;;5065631;28;20419;-75
2021/04/21 04:39:36;;;;;;;50.90;32.25;;;13.20;73.50;;;;;;5066606;28;20458;-76
2021/04/21 04:42:04;;;;;;;52.10;32.58;;;13.20;73.80;;;;;;5067543;28;20427;-76
2021/04/21 04:44:30;;;;;;;51.10;32.25;;;13.20;73.90;;;;;;5070073;28;20431;-75
2021/04/21 04:47:02;;;;;;;52.90;33.50;;;13.20;74.10;;;;;;5072317;28;20426;-75
2021/04/21 04:49:32;;;;;;;53.78;33.33;;;13.20;74.50;;;;;;5069755;28;20510;-75
2021/04/21 04:51:59;;;;;;;53.97;32.67;;;13.20;74.70;;;;;;5070619;28;20431;-75
2021/04/21 04:54:26;;;;;;;53.93;32.73;;;13.20;75.00;;;;;;5072359;28;20436;-76
2021/04/21 04:56:54;;;;;;;51.45;32.60;;;13.10;75.10;;;;;;5074263;28;20442;-78
2021/04/21 04:59:24;;;;;;;54.17;32.07;;;13.10;75.30;;;;;;5068376;28;20420;-77
2021/04/21 05:01:58;;;;;;;53.90;32.63;;;13.10;75.40;;;;;;5072226;28;20442;-78
2021/04/21 05:04:32;;;;;;;54.28;32.65;;;13.10;75.60;;;;;;5072852;28;20430;-75
2021/04/21 05:07:03;;;;;;;50.70;32.80;;;13.10;75.80;;;;;;5072492;28;20918;-74
2021/04/21 05:09:32;;;;;;;50.53;31.60;;;13.10;75.90;;;;;;5077094;28;20515;-75
2021/04/21 05:12:02;;;;;;;53.25;31.08;;;13.10;75.70;;;;;;5073847;28;20793;-74
2021/04/21 05:14:32;;;;;;;47.97;30.05;;;13.10;75.70;;;;;;5074893;28;20521;-75
2021/04/21 05:17:46;;;;;;;53.13;31.00;;;13.10;75.50;;;;;;5078105;28;20488;-74
2021/04/21 05:20:46;;;;;;;50.38;29.80;;;13.10;75.50;;;;;;5069728;28;20943;-74
2021/04/21 05:23:49;;;;;;;50.63;31.15;;;13.10;75.60;;;;;;5075656;28;20483;-75
2021/04/21 05:26:54;;;;;;;51.13;30.65;;;13.10;75.80;;;;;;5078967;28;20415;-74
2021/04/21 05:29:59;;;;;;;51.92;31.33;;;13.10;76.50;;;;;;5070443;28;20919;-75
2021/04/21 05:32:54;;;;;;;53.17;31.33;;;13.10;77.40;;;;;;5074110;28;20435;-75
2021/04/21 05:35:57;;;;;;;54.43;33.33;;;13.20;79.20;;;;;;5068464;28;21045;-75
2021/04/21 05:39:05;;;;;;;52.15;34.00;;;13.20;80.10;;;;;;5073697;28;20419;-75
2021/04/21 05:42:20;;;;;;;52.65;35.13;;;13.20;81.30;;;;;;5077296;28;20419;-75
2021/04/21 05:45:20;;;;;;;60.33;37.13;;;13.20;82.10;;;;;;5081462;28;20429;-74
2021/04/21 05:48:14;;;;;;;60.55;39.85;;;13.20;83.10;;;;;;5079219;28;20427;-75
2021/04/21 05:51:27;;;;;;;61.58;40.45;;;13.20;83.90;;;;;;5089029;28;20558;-75
2021/04/21 05:54:28;;;;;;;63.95;41.05;;;13.20;84.80;;;;;;5076279;28;20763;-74
2021/04/21 05:57:24;;;;;;;62.55;42.88;;;13.20;85.80;;;;;;5070808;28;20415;-75
2021/04/21 06:00:32;;;;;;;62.87;42.93;;;13.20;86.60;;;;;;5083003;28;20901;-74
2021/04/21 06:03:01;;;;;;;66.37;42.40;;;13.30;87.50;;;;;;5075472;28;20426;-76
2021/04/21 06:05:27;;;;;;;61.17;41.17;;;13.30;88.00;;;;;;5079886;28;20421;-74
2021/04/21 06:07:54;;;;;;;55.38;36.20;;;13.40;88.10;;;;;;5086394;28;20464;-75
2021/04/21 06:10:23;;;;;;;52.75;35.08;;;13.30;87.20;;;;;;5086472;28;20417;-73
2021/04/21 06:12:55;;;;;;;47.80;33.15;;;13.40;86.60;;;;;;5079632;28;20435;-75
2021/04/21 06:15:23;;;;;;;47.88;30.98;;;13.40;86.30;;;;;;5080639;28;20516;-75
2021/04/21 06:17:54;;;;;;;44.10;29.88;;;13.40;85.80;;;;;;5088867;28;20422;-75
2021/04/21 06:20:34;;;;;;;44.57;30.87;;;13.50;85.70;;;;;;5079122;28;20467;-74
2021/04/21 06:23:03;;;;;;;45.42;31.42;;;13.50;85.70;;;;;;5072769;28;20455;-73
2021/04/21 06:25:30;;;;;;;46.90;32.05;;;13.50;86.00;;;;;;5081784;28;20901;-74
2021/04/21 06:28:10;;;;;;;47.33;32.30;;;13.50;86.30;;;;;;5081037;28;20423;-74
2021/04/21 06:30:37;;;;;;;45.65;31.45;;;13.50;86.60;;;;;;5080874;28;20510;-74
2021/04/21 06:33:07;;;;;;;46.42;31.75;;;13.50;86.70;;;;;;5084299;28;20406;-73
2021/04/21 06:35:35;;;;;;;45.58;32.13;;;13.50;86.90;;;;;;5083593;28;20455;-75
2021/04/21 06:38:02;;;;;;;48.23;33.23;;;13.50;87.60;;;;;;5078559;28;20426;-74
2021/04/21 06:40:31;;;;;;;49.80;34.13;;;13.50;88.40;;;;;;5085300;28;20474;-75
2021/04/21 06:42:58;;;;;;;51.97;34.53;;;13.50;89.20;;;;;;5077278;28;20419;-74
2021/04/21 06:45:25;;;;;;;51.75;35.03;;;13.50;89.70;;;;;;5073990;28;20477;-73
2021/04/21 06:47:53;;;;;;;50.50;34.15;;;13.50;90.00;;;;;;5079918;28;20417;-74
2021/04/21 06:50:19;;;;;;;49.63;34.75;;;13.50;90.00;;;;;;5080574;28;20629;-73
2021/04/21 06:52:47;;;;;;;50.78;33.58;;;13.50;90.00;;;;;;5076608;28;20415;-74
2021/04/21 06:55:15;;;;;;;55.28;33.95;;;13.50;90.20;;;;;;5081944;28;20476;-72
2021/04/21 06:57:42;;;;;;;51.28;34.35;;;13.50;90.20;;;;;;5071610;28;20413;-73
2021/04/21 07:00:11;;;;;;;54.45;35.42;;;13.50;90.20;;;;;;5076450;28;20427;-72
2021/04/21 07:02:39;;;;;;;54.75;34.63;;;13.40;90.50;;;;;;5074236;28;20786;-76
2021/04/21 07:05:25;;;;;;;51.83;33.47;;;13.50;90.60;;;;;;5066497;28;20765;-74
2021/04/21 07:08:09;;;;;;;51.15;33.45;;;13.50;90.20;;;;;;5077645;28;20422;-74
2021/04/21 07:10:38;;;;;;;52.53;33.65;;;13.60;90.00;;;;;;5071970;28;20429;-74
2021/04/21 07:13:07;;;;;;;54.65;33.92;;;13.60;89.60;;;;;;5077039;28;20412;-74
2021/04/21 07:15:34;;;;;;;54.00;33.58;;;13.60;89.60;;;;;;5070912;28;20423;-72
2021/04/21 07:18:02;;;;;;;53.55;33.35;;;13.70;89.60;;;;;;5074167;28;20504;-74
2021/04/21 07:20:29;;;;;;;52.87;33.20;;;13.70;89.30;;;;;;5072332;28;20408;-75
2021/04/21 07:22:57;;;;;;;53.97;33.35;;;13.80;89.30;;;;;;5089268;28;20555;-75
2021/04/21 07:25:24;;;;;;;55.80;33.03;;;13.80;89.30;;;;;;5075223;28;20586;-74
2021/04/21 07:27:54;;;;;;;55.50;34.55;;;13.80;89.60;;;;;;5073367;28;20498;-75
2021/04/21 07:30:28;;;;;;;55.75;32.63;;;13.90;89.60;;;;;;5069068;28;20494;-76
2021/04/21 07:32:55;;;;;;;55.67;32.00;;;13.90;88.90;;;;;;5068961;28;20421;-76
2021/04/21 07:35:23;;;;;;;53.15;30.75;;;14.00;88.80;;;;;;5069271;28;20423;-75
2021/04/21 07:37:51;;;;;;;50.50;29.48;;;14.00;88.20;;;;;;5064458;28;20427;-75
2021/04/21 07:40:27;;;;;;;50.40;29.35;;;14.00;87.80;;;;;;5071564;28;20415;-76
2021/04/21 07:43:05;;;;;;;55.38;30.17;;;14.00;88.10;;;;;;5063015;28;21883;-76
2021/04/21 07:45:43;;;;;;;51.10;29.83;;;14.00;88.30;;;;;;5067011;28;20579;-76
2021/04/21 07:48:40;;;;;;;51.80;30.02;;;14.00;88.70;;;;;;5063009;28;20925;-76
2021/04/21 07:51:46;;;;;;;47.70;29.83;;;14.00;88.80;;;;;;5062861;28;20528;-76
2021/04/21 07:54:22;;;;;;;46.05;28.98;;;14.00;88.60;;;;;;5063369;28;20427;-75
2021/04/21 07:56:56;;;;;;;51.85;29.30;;;14.00;88.30;;;;;;5066380;28;20774;-74
2021/04/21 07:59:24;;;;;;;49.65;29.63;;;14.00;88.50;;;;;;5067974;28;20427;-75
2021/04/21 08:01:52;;;;;;;50.97;30.15;;;14.00;88.90;;;;;;5066036;28;20907;-74
2021/04/21 08:04:26;;;;;;;55.33;33.22;;;14.00;89.00;;;;;;5062450;28;20423;-75
2021/04/21 08:06:54;;;;;;;47.33;29.63;;;14.00;89.40;;;;;;5065963;28;20439;-74
2021/04/21 08:09:22;;;;;;;49.08;30.17;;;14.00;89.90;;;;;;5066054;28;20982;-75
2021/04/21 08:12:08;;;;;;;48.53;30.25;;;13.90;90.00;;;;;;5068559;28;20430;-75
2021/04/21 08:14:43;;;;;;;47.58;29.00;;;13.90;90.10;;;;;;5065445;28;20477;-74
2021/04/21 08:17:10;;;;;;;48.03;29.35;;;13.90;90.10;;;;;;5066701;28;20434;-75
2021/04/21 08:19:42;;;;;;;44.67;27.77;;;13.90;90.50;;;;;;5059942;28;20430;-74
2021/04/21 08:22:09;;;;;;;47.03;27.88;;;13.90;90.00;;;;;;5068424;28;20515;-75
2021/04/21 08:24:46;;;;;;;48.25;28.55;;;13.90;89.80;;;;;;5065770;28;20419;-75
2021/04/21 08:27:16;;;;;;;47.33;28.10;;;13.90;89.80;;;;;;5072402;28;20435;-75
2021/04/21 08:29:44;;;;;;;44.38;28.75;;;13.90;89.70;;;;;;5060509;28;20844;-75
2021/04/21 08:32:16;;;;;;;46.95;28.50;;;13.90;89.70;;;;;;5068592;28;20423;-76
2021/04/21 08:34:42;;;;;;;45.58;28.17;;;13.80;90.10;;;;;;5064386;28;20429;-75
2021/04/21 08:37:09;;;;;;;44.35;27.92;;;13.80;90.00;;;;;;5084670;28;20457;-74
2021/04/21 08:39:37;;;;;;;44.80;27.90;;;13.80;89.80;;;;;;5069884;28;20530;-74
2021/04/21 08:42:07;;;;;;;43.57;27.97;;;13.80;89.70;;;;;;5071979;28;20439;-74
2021/04/21 08:44:36;;;;;;;43.20;27.10;;;13.90;89.80;;;;;;5066689;28;20867;-74
2021/04/21 08:47:03;;;;;;;40.65;26.92;;;13.90;89.80;;;;;;5068594;28;20419;-74
2021/04/21 08:49:31;;;;;;;42.67;27.85;;;14.00;89.40;;;;;;5064076;28;20494;-74
2021/04/21 08:52:02;;;;;;;47.97;27.95;;;14.10;88.50;;;;;;5072616;28;20421;-75
2021/04/21 08:54:29;;;;;;;40.38;26.52;;;14.10;88.10;;;;;;5068746;28;20423;-74
2021/04/21 08:56:58;;;;;;;44.70;27.55;;;14.10;88.40;;;;;;5064934;28;20784;-73
2021/04/21 08:59:24;;;;;;;45.87;27.23;;;14.10;88.40;;;;;;5066635;28;20971;-74
2021/04/21 09:01:52;;;;;;;40.70;25.60;;;14.10;88.20;;;;;;5067478;28;20435;-73
2021/04/21 09:04:19;;;;;;;42.77;26.07;;;14.20;87.70;;;;;;5064329;28;20503;-74
2021/04/21 09:06:46;;;;;;;40.33;24.58;;;14.20;87.40;;;;;;5068481;28;20479;-75
2021/04/21 09:09:14;;;;;;;33.33;21.60;;;14.20;87.30;;;;;;5067373;28;20881;-75
2021/04/21 09:11:40;;;;;;;35.60;21.00;;;14.30;86.40;;;;;;5070573;28;20810;-74
2021/04/21 09:14:07;;;;;;;35.10;19.90;;;14.30;85.40;;;;;;5069157;28;20423;-75
2021/04/21 09:16:33;;;;;;;32.42;18.77;;;14.30;84.10;;;;;;5069134;28;20434;-75
2021/04/21 09:19:13;;;;;;;32.35;18.08;;;14.40;83.80;;;;;;5063173;28;20424;-75
2021/04/21 09:21:39;;;;;;;27.75;16.10;;;14.30;83.40;;;;;;5067495;28;20426;-76
2021/04/21 09:24:11;;;;;;;26.38;15.50;;;14.30;82.70;;;;;;5070542;28;20892;-75
2021/04/21 09:26:38;;;;;;;25.07;14.67;;;14.30;82.40;;;;;;5072374;28;20423;-74
2021/04/21 09:29:05;;;;;;;24.33;15.25;;;14.30;82.20;;;;;;5062758;28;20809;-74
2021/04/21 09:31:33;;;;;;;22.95;14.38;;;14.40;81.60;;;;;;5072743;28;20539;-75
2021/04/21 09:34:12;;;;;;;21.55;12.95;;;14.40;81.50;;;;;;5070073;28;20420;-75
2021/04/21 09:36:40;;;;;;;18.13;11.93;;;14.60;80.90;;;;;;5071172;28;20484;-74
2021/04/21 09:39:12;;;;;;;15.98;10.52;;;14.60;80.20;;;;;;5070273;28;20421;-74
2021/04/21 09:41:39;;;;;;;20.05;10.20;;;14.60;79.70;;;;;;5071366;28;20439;-74
2021/04/21 09:44:14;;;;;;;18.60;8.50;;;14.70;79.10;;;;;;5075860;28;20523;-74
2021/04/21 09:46:41;;;;;;;14.43;7.33;;;14.70;78.50;;;;;;5072621;28;20424;-75
2021/04/21 09:49:34;;;;;;;11.50;5.97;;;14.80;77.70;;;;;;5076259;28;20490;-73
2021/04/21 09:52:02;;;;;;;12.50;5.70;;;14.80;76.90;;;;;;5067202;28;20939;-74
2021/04/21 09:54:31;;;;;;;10.13;4.80;;;14.90;76.10;;;;;;5073168;28;20908;-75
2021/04/21 09:57:11;;;;;;;13.50;5.10;;;14.90;75.20;;;;;;5073186;28;20434;-73
2021/04/21 09:59:38;;;;;;;13.88;4.32;;;14.90;75.30;;;;;;5068844;28;20424;-73
2021/04/21 10:02:24;;;;;;;13.10;4.78;;;14.90;75.20;;;;;;5073049;28;20427;-74
2021/04/21 10:04:52;;;;;;;14.38;6.18;;;15.00;75.20;;;;;;5069105;28;20427;-74
2021/04/21 10:07:20;;;;;;;10.82;3.97;;;15.10;75.30;;;;;;5073864;28;20430;-75
2021/04/21 10:09:48;;;;;;;9.60;3.95;;;15.10;74.40;;;;;;5075844;28;20435;-75
2021/04/21 10:12:18;;;;;;;8.98;3.03;;;15.10;73.70;;;;;;5075082;28;20420;-75
2021/04/21 10:14:46;;;;;;;7.90;3.13;;;15.10;72.60;;;;;;5069715;28;20514;-74
2021/04/21 10:17:13;;;;;;;8.15;2.85;;;15.20;72.20;;;;;;5077297;28;20433;-74
2021/04/21 10:19:41;;;;;;;6.40;2.50;;;15.20;71.90;;;;;;5064639;28;20419;-74
2021/04/21 10:22:12;;;;;;;6.90;2.33;;;15.40;71.60;;;;;;5068080;28;20422;-76
2021/04/21 10:24:38;;;;;;;7.78;2.28;;;15.40;70.90;;;;;;5076806;28;20847;-74
2021/04/21 10:27:06;;;;;;;9.57;2.88;;;15.50;70.50;;;;;;5069807;28;20434;-76
2021/04/21 10:29:36;;;;;;;10.75;3.30;;;15.60;69.40;;;;;;5072242;28;20449;-80
2021/04/21 10:32:02;;;;;;;8.02;2.33;;;15.60;67.80;;;;;;5070777;28;20776;-76
2021/04/21 10:34:29;;;;;;;8.10;2.13;;;15.70;67.30;;;;;;5070122;28;20442;-74
2021/04/21 10:36:55;;;;;;;8.75;1.80;;;15.70;67.30;;;;;;5076553;28;20449;-74
2021/04/21 10:39:34;;;;;;;8.83;2.13;;;15.70;65.30;;;;;;5073288;28;20427;-74
2021/04/21 10:42:09;;;;;;;9.88;2.55;;;15.80;65.70;;;;;;5070099;28;20441;-75
2021/04/21 10:44:37;;;;;;;14.13;2.58;;;15.80;65.00;;;;;;5069191;28;20431;-75
2021/04/21 10:47:08;;;;;;;8.20;2.55;;;15.90;65.20;;;;;;5066657;28;20415;-74
2021/04/21 10:49:56;;;;;;;14.77;2.70;;;16.00;63.50;;;;;;5069808;28;20500;-73
2021/04/21 10:52:33;;;;;;;16.95;3.60;;;15.90;62.20;;;;;;5071884;28;20815;-74
2021/04/21 10:55:21;;;;;;;11.50;2.60;;;15.90;61.10;;;;;;5067147;28;20473;-75
2021/04/21 10:57:56;;;;;;;10.27;1.75;;;15.90;61.30;;;;;;5070780;28;20750;-74
2021/04/21 11:00:28;;;;;;;11.57;1.95;;;16.00;60.70;;;;;;5068628;28;20830;-72
2021/04/21 11:02:59;;;;;;;10.70;2.15;;;16.00;60.10;;;;;;5067506;28;20416;-74
2021/04/21 11:05:56;;;;;;;10.20;2.08;;;16.00;60.00;;;;;;5070767;28;20790;-73
2021/04/21 11:08:25;;;;;;;10.18;2.13;;;16.00;59.70;;;;;;5065269;28;20538;-74
2021/04/21 11:11:03;;;;;;;23.48;5.35;;;16.10;59.40;;;;;;5067816;28;20787;-74
2021/04/21 11:13:47;;;;;;;13.27;2.50;;;16.10;59.20;;;;;;5068867;28;20435;-77
2021/04/21 11:16:33;;;;;;;11.77;2.38;;;16.10;58.80;;;;;;5067571;28;20553;-75
2021/04/21 11:19:30;;;;;;;11.50;2.37;;;16.10;59.00;;;;;;5071417;28;20938;-72
2021/04/21 11:22:30;;;;;;;14.75;2.30;;;16.00;59.10;;;;;;5068335;28;20931;-72
2021/04/21 11:25:19;;;;;;;10.52;2.00;;;16.20;58.30;;;;;;5067821;28;20783;-72
2021/04/21 11:27:47;;;;;;;11.77;2.20;;;16.30;57.70;;;;;;5067039;28;21016;-74
2021/04/21 11:30:51;;;;;;;9.13;1.90;;;16.40;57.90;;;;;;5072325;28;20433;-75
2021/04/21 11:33:57;;;;;;;16.35;2.10;;;16.60;57.40;;;;;;5067457;28;20890;-74
2021/04/21 11:36:50;;;;;;;12.07;2.50;;;16.80;57.90;;;;;;5075035;28;20931;-73
2021/04/21 11:39:56;;;;;;;15.03;3.20;;;17.10;57.40;;;;;;5068355;28;20753;-74
2021/04/21 11:42:29;;;;;;;13.85;3.40;;;17.20;56.20;;;;;;5064416;28;20428;-74
2021/04/21 11:44:59;;;;;;;10.73;3.00;;;17.30;55.40;;;;;;5071777;28;20434;-73
2021/04/21 11:47:37;;;;;;;15.65;3.03;;;17.30;55.70;;;;;;5071683;28;20921;-73
2021/04/21 11:50:12;;;;;;;12.95;2.97;;;17.40;55.70;;;;;;5065832;28;20463;-73
2021/04/21 11:52:43;;;;;;;13.38;2.40;;;17.50;56.30;;;;;;5065076;28;20431;-73
2021/04/21 11:55:11;;;;;;;12.57;2.55;;;17.60;56.00;;;;;;5066607;28;20431;-73
2021/04/21 11:57:38;;;;;;;12.57;2.72;;;17.60;55.40;;;;;;5068537;28;20423;-73
2021/04/21 12:00:07;;;;;;;9.60;2.60;;;17.70;54.40;;;;;;5067064;28;20891;-73
2021/04/21 12:02:38;;;;;;;11.10;2.47;;;17.90;53.50;;;;;;5064283;28;20426;-73
2021/04/21 12:05:05;;;;;;;10.80;2.47;;;18.00;53.30;;;;;;5065386;28;20426;-73
2021/04/21 12:07:32;;;;;;;10.55;2.45;;;18.10;52.70;;;;;;5067936;28;20427;-74
2021/04/21 12:09:59;;;;;;;10.88;2.22;;;18.30;50.50;;;;;;5064351;28;20433;-73
2021/04/21 12:12:26;;;;;;;8.07;2.15;;;18.40;50.30;;;;;;5066122;28;20441;-73
2021/04/21 12:15:03;;;;;;;12.50;2.53;;;18.50;49.70;;;;;;5068395;28;20415;-74
2021/04/21 12:17:30;;;;;;;8.93;2.17;;;18.70;49.50;;;;;;5079547;28;20429;-74
2021/04/21 12:19:59;;;;;;;11.93;2.55;;;18.90;48.60;;;;;;5067321;28;20423;-73
2021/04/21 12:22:39;;;;;;;10.38;2.40;;;19.00;47.90;;;;;;5074560;28;20426;-73
2021/04/21 12:25:07;;;;;;;15.35;3.30;;;19.20;47.20;;;;;;5065409;28;20484;-73
2021/04/21 12:27:34;;;;;;;11.45;2.92;;;19.30;47.50;;;;;;5071857;28;20523;-74
2021/04/21 12:30:09;;;;;;;13.55;2.63;;;19.40;46.60;;;;;;5064444;28;20764;-74
2021/04/21 12:32:36;;;;;;;13.18;2.45;;;19.50;46.40;;;;;;5071312;28;20431;-74
2021/04/21 12:35:04;;;;;;;16.92;2.85;;;19.60;45.90;;;;;;5073140;28;20422;-74
2021/04/21 12:37:30;;;;;;;12.68;2.80;;;19.70;45.50;;;;;;5069532;28;20434;-75
2021/04/21 12:39:56;;;;;;;10.77;2.50;;;19.70;44.90;;;;;;5071603;28;20414;-74
2021/04/21 12:42:23;;;;;;;10.98;2.70;;;19.90;44.70;;;;;;5067676;28;20431;-75
2021/04/21 12:44:49;;;;;;;13.10;2.42;;;20.00;44.10;;;;;;5066407;28;20429;-74
2021/04/21 12:47:16;;;;;;;10.00;2.60;;;20.10;43.90;;;;;;5060981;28;20427;-73
2021/04/21 12:49:46;;;;;;;18.98;2.90;;;20.30;43.70;;;;;;5064928;28;20423;-73
2021/04/21 12:52:15;;;;;;;11.75;2.75;;;20.50;42.90;;;;;;5065597;28;20758;-72
2021/04/21 12:54:43;;;;;;;10.82;2.50;;;20.70;42.30;;;;;;5064375;28;20420;-75
2021/04/21 12:57:11;;;;;;;9.20;2.58;;;20.90;41.90;;;;;;5065666;28;20466;-73
2021/04/21 12:59:39;;;;;;;10.48;2.55;;;21.10;41.60;;;;;;5063548;28;20518;-72
2021/04/21 13:02:06;;;;;;;10.93;2.60;;;21.30;40.90;;;;;;5064320;28;20930;-74